createdAt,value
2023-03-22T00:01:31.030Z,20.60
2023-03-22T00:03:59.294Z,20.50
2023-03-22T00:06:29.286Z,20.50
2023-03-22T00:08:58.703Z,20.40
2023-03-22T00:11:26.800Z,20.40
2023-03-22T00:13:55.269Z,20.30
2023-03-22T00:16:23.676Z,20.50
2023-03-22T00:18:52.047Z,20.40
2023-03-22T00:21:21.927Z,20.30
2023-03-22T00:23:49.947Z,20.30
2023-03-22T00:26:19.378Z,20.20
2023-03-22T00:28:47.326Z,20.20
2023-03-22T00:31:15.283Z,20.30
2023-03-22T00:33:43.260Z,20.20
2023-03-22T00:36:13.468Z,20.30
2023-03-22T00:38:43.121Z,20.40
2023-03-22T00:41:14.290Z,20.60
2023-03-22T00:43:44.483Z,20.20
2023-03-22T00:46:14.167Z,20.30
2023-03-22T00:48:42.593Z,20.50
2023-03-22T00:51:11.669Z,20.40
2023-03-22T00:53:43.107Z,20.40
2023-03-22T00:56:15.482Z,20.30
2023-03-22T00:58:44.808Z,20.20
2023-03-22T01:01:14.495Z,20.40
2023-03-22T01:03:43.866Z,20.60
2023-03-22T01:06:12.478Z,20.20
2023-03-22T01:08:40.547Z,20.30
2023-03-22T01:11:10.133Z,20.40
2023-03-22T01:13:38.880Z,20.20
2023-03-22T01:16:10.845Z,20.20
2023-03-22T01:18:38.948Z,20.30
2023-03-22T01:21:07.776Z,20.50
2023-03-22T01:23:36.379Z,20.40
2023-03-22T01:26:05.556Z,20.40
2023-03-22T01:28:33.621Z,20.20
2023-03-22T01:31:03.927Z,20.20
2023-03-22T01:33:33.449Z,20.40
2023-03-22T01:36:01.499Z,20.20
2023-03-22T01:38:29.571Z,20.40
2023-03-22T01:40:58.101Z,20.20
2023-03-22T01:43:27.632Z,20.20
2023-03-22T01:45:56.465Z,20.20
2023-03-22T01:48:29.303Z,20.20
2023-03-22T01:51:08.863Z,20.40
2023-03-22T01:53:40.938Z,20.30
2023-03-22T01:56:10.402Z,20.30
2023-03-22T01:58:40.670Z,20.20
2023-03-22T02:01:11.515Z,20.20
2023-03-22T02:03:48.565Z,20.60
2023-03-22T02:06:18.538Z,20.20
2023-03-22T02:08:47.005Z,20.20
2023-03-22T02:11:18.097Z,20.40
2023-03-22T02:14:18.350Z,20.60
2023-03-22T02:17:00.022Z,20.20
2023-03-22T02:20:07.864Z,20.10
2023-03-22T02:23:10.935Z,20.30
2023-03-22T02:26:13.785Z,20.50
2023-03-22T02:28:50.138Z,20.30
2023-03-22T02:32:02.203Z,20.20
2023-03-22T02:35:10.058Z,20.20
2023-03-22T02:38:34.835Z,20.20
2023-03-22T02:41:13.359Z,20.20
2023-03-22T02:43:52.442Z,20.20
2023-03-22T02:46:26.463Z,20.30
2023-03-22T02:49:03.041Z,20.10
2023-03-22T02:51:38.718Z,20.40
2023-03-22T02:54:11.802Z,20.30
2023-03-22T02:56:45.184Z,20.30
2023-03-22T02:59:14.877Z,20.40
2023-03-22T03:01:49.177Z,20.20
2023-03-22T03:04:21.166Z,20.10
2023-03-22T03:06:52.273Z,20.00
2023-03-22T03:09:22.362Z,20.20
2023-03-22T03:11:54.394Z,20.00
2023-03-22T03:14:25.152Z,20.20
2023-03-22T03:17:09.866Z,20.10
2023-03-22T03:19:46.874Z,20.00
2023-03-22T03:22:39.474Z,20.30
2023-03-22T03:25:18.272Z,20.40
2023-03-22T03:27:57.397Z,20.20
2023-03-22T03:30:33.586Z,20.20
2023-03-22T03:33:06.577Z,20.20
2023-03-22T03:35:39.371Z,20.30
2023-03-22T03:38:11.840Z,20.30
2023-03-22T03:40:45.150Z,20.20
2023-03-22T03:43:15.475Z,20.30
2023-03-22T03:45:45.597Z,20.10
2023-03-22T03:48:20.326Z,20.10
2023-03-22T03:50:51.732Z,20.40
2023-03-22T03:53:19.936Z,19.90
2023-03-22T03:55:47.918Z,20.20
2023-03-22T03:58:17.342Z,20.20
2023-03-22T04:00:46.530Z,20.20
2023-03-22T04:03:15.243Z,20.20
2023-03-22T04:05:43.330Z,20.20
2023-03-22T04:08:11.282Z,20.20
2023-03-22T04:10:39.482Z,20.10
2023-03-22T04:13:07.653Z,20.10
2023-03-22T04:15:37.026Z,20.00
2023-03-22T04:18:05.374Z,19.80
2023-03-22T04:20:33.383Z,20.30
2023-03-22T04:23:01.426Z,20.20
2023-03-22T04:25:30.362Z,20.20
2023-03-22T04:28:00.382Z,20.20
2023-03-22T04:30:28.348Z,20.20
2023-03-22T04:32:57.823Z,20.10
2023-03-22T04:35:25.762Z,20.00
2023-03-22T04:37:53.787Z,20.10
2023-03-22T04:40:21.736Z,20.20
2023-03-22T04:42:49.738Z,20.10
2023-03-22T04:45:17.855Z,20.20
2023-03-22T04:47:45.962Z,20.20
2023-03-22T04:50:15.356Z,20.10
2023-03-22T04:52:43.325Z,20.20
2023-03-22T04:55:11.380Z,20.40
2023-03-22T04:57:39.293Z,20.20
2023-03-22T05:00:09.996Z,20.10
2023-03-22T05:02:41.429Z,20.10
2023-03-22T05:05:10.115Z,20.00
2023-03-22T05:07:39.669Z,19.90
2023-03-22T05:10:09.524Z,20.10
2023-03-22T05:12:37.473Z,20.00
2023-03-22T05:15:07.066Z,19.90
2023-03-22T05:17:35.184Z,20.20
2023-03-22T05:20:09.415Z,20.10
2023-03-22T05:22:40.409Z,20.00
2023-03-22T05:25:11.346Z,20.20
2023-03-22T05:27:39.300Z,20.10
2023-03-22T05:30:09.811Z,20.10
2023-03-22T05:32:42.915Z,19.80
2023-03-22T05:35:11.494Z,20.10
2023-03-22T05:37:41.401Z,20.00
2023-03-22T05:40:10.858Z,20.20
2023-03-22T05:42:38.824Z,20.20
2023-03-22T05:45:08.467Z,20.20
2023-03-22T05:47:39.216Z,20.10
2023-03-22T05:50:09.893Z,20.30
2023-03-22T05:52:39.597Z,20.30
2023-03-22T05:55:08.773Z,20.30
2023-03-22T05:57:36.971Z,20.30
2023-03-22T06:00:10.288Z,20.40
2023-03-22T06:02:38.246Z,20.20
2023-03-22T06:05:07.530Z,20.20
2023-03-22T06:07:35.545Z,20.30
2023-03-22T06:10:05.292Z,20.20
2023-03-22T06:12:33.634Z,20.00
2023-03-22T06:15:01.978Z,20.20
2023-03-22T06:17:30.561Z,20.30
2023-03-22T06:19:58.705Z,20.20
2023-03-22T06:22:26.978Z,20.30
2023-03-22T06:24:54.962Z,20.40
2023-03-22T06:27:24.296Z,20.50
2023-03-22T06:29:54.627Z,20.30
2023-03-22T06:32:23.519Z,20.20
2023-03-22T06:34:51.878Z,20.30
2023-03-22T06:37:20.231Z,20.30
2023-03-22T06:39:48.207Z,20.40
2023-03-22T06:42:16.392Z,20.50
2023-03-22T06:44:45.813Z,20.20
2023-03-22T06:47:14.283Z,20.40
2023-03-22T06:49:42.341Z,20.30
2023-03-22T06:52:10.829Z,20.50
2023-03-22T06:54:38.826Z,20.30
2023-03-22T06:57:06.827Z,20.30
2023-03-22T06:59:34.912Z,20.20
2023-03-22T07:02:04.758Z,20.50
2023-03-22T07:04:33.068Z,20.40
2023-03-22T07:07:01.124Z,20.40
2023-03-22T07:09:29.156Z,20.50
2023-03-22T07:11:57.089Z,20.20
2023-03-22T07:14:25.190Z,20.30
2023-03-22T07:16:53.159Z,20.20
2023-03-22T07:19:22.539Z,20.50
2023-03-22T07:21:50.688Z,20.30
2023-03-22T07:24:18.731Z,20.20
2023-03-22T07:26:46.749Z,20.20
2023-03-22T07:29:14.740Z,20.50
2023-03-22T07:31:42.699Z,20.30
2023-03-22T07:34:11.083Z,20.20
2023-03-22T07:36:40.592Z,20.30
2023-03-22T07:39:08.649Z,20.30
2023-03-22T07:41:36.652Z,20.60
2023-03-22T07:44:16.971Z,20.40
2023-03-22T07:46:45.650Z,20.40
2023-03-22T07:49:13.883Z,20.60
2023-03-22T07:51:43.203Z,20.50
2023-03-22T07:54:14.045Z,20.90
2023-03-22T07:56:47.939Z,20.40
2023-03-22T07:59:16.360Z,20.60
2023-03-22T08:01:44.467Z,20.70
2023-03-22T08:04:12.565Z,20.70
2023-03-22T08:06:42.620Z,20.50
2023-03-22T08:09:12.810Z,20.50
2023-03-22T08:11:41.566Z,20.70
2023-03-22T08:14:10.082Z,20.50
2023-03-22T08:16:38.888Z,20.90
2023-03-22T08:19:07.042Z,21.10
2023-03-22T08:21:35.138Z,21.20
2023-03-22T08:24:03.489Z,20.80
2023-03-22T08:26:32.861Z,21.10
2023-03-22T08:29:00.908Z,21.10
2023-03-22T08:31:29.386Z,21.10
2023-03-22T08:33:57.445Z,20.70
2023-03-22T08:36:25.579Z,21.10
2023-03-22T08:38:53.766Z,20.30
2023-03-22T08:41:23.494Z,20.20
2023-03-22T08:43:52.870Z,20.00
2023-03-22T08:46:20.850Z,19.60
2023-03-22T08:48:50.674Z,19.90
2023-03-22T08:51:19.906Z,19.70
2023-03-22T08:53:48.065Z,19.50
2023-03-22T08:56:16.943Z,19.70
2023-03-22T08:58:46.691Z,20.50
2023-03-22T09:01:20.834Z,20.50
2023-03-22T09:03:48.930Z,21.10
2023-03-22T09:06:16.849Z,20.70
2023-03-22T09:08:44.847Z,21.40
2023-03-22T09:11:15.642Z,21.30
2023-03-22T09:13:45.951Z,21.40
2023-03-22T09:16:16.506Z,21.40
2023-03-22T09:18:44.959Z,21.30
2023-03-22T09:21:13.573Z,21.40
2023-03-22T09:23:42.367Z,21.60
2023-03-22T09:26:10.990Z,21.60
2023-03-22T09:28:39.034Z,21.60
2023-03-22T09:31:10.320Z,21.50
2023-03-22T09:33:42.277Z,21.70
2023-03-22T09:36:11.876Z,21.60
2023-03-22T09:38:41.233Z,21.60
2023-03-22T09:41:16.147Z,22.00
2023-03-22T09:43:48.925Z,21.70
2023-03-22T09:46:23.359Z,21.90
2023-03-22T09:48:53.098Z,22.30
2023-03-22T09:51:40.741Z,22.00
2023-03-22T09:54:18.368Z,21.70
2023-03-22T09:56:51.033Z,22.10
2023-03-22T09:59:27.061Z,22.20
2023-03-22T10:02:00.617Z,22.10
2023-03-22T10:04:47.806Z,22.30
2023-03-22T10:07:27.111Z,22.10
2023-03-22T10:10:08.345Z,22.10
2023-03-22T10:12:43.721Z,22.00
2023-03-22T10:15:16.757Z,21.80
2023-03-22T10:17:49.383Z,22.20
2023-03-22T10:20:32.867Z,22.40
2023-03-22T10:23:05.725Z,22.20
2023-03-22T10:25:38.899Z,22.20
2023-03-22T10:28:18.149Z,22.40
2023-03-22T10:30:51.073Z,22.30
2023-03-22T10:33:31.136Z,22.20
2023-03-22T10:36:02.062Z,21.90
2023-03-22T10:38:32.762Z,22.00
2023-03-22T10:41:02.468Z,22.40
2023-03-22T10:43:35.835Z,22.50
2023-03-22T10:46:07.583Z,22.60
2023-03-22T10:48:38.531Z,22.60
2023-03-22T10:51:08.711Z,22.40
2023-03-22T10:53:40.732Z,22.50
2023-03-22T10:56:15.485Z,22.30
2023-03-22T10:58:44.067Z,22.10
2023-03-22T11:01:14.777Z,22.00
2023-03-22T11:03:45.157Z,22.00
2023-03-22T11:06:18.650Z,22.00
2023-03-22T11:08:49.103Z,21.90
2023-03-22T11:11:26.870Z,22.40
2023-03-22T11:14:01.257Z,22.40
2023-03-22T11:16:31.774Z,22.20
2023-03-22T11:19:03.040Z,21.90
2023-03-22T11:21:34.470Z,22.30
2023-03-22T11:24:06.810Z,22.20
2023-03-22T11:26:40.743Z,22.10
2023-03-22T11:29:16.446Z,22.30
2023-03-22T11:31:56.247Z,22.10
2023-03-22T11:34:28.475Z,22.30
2023-03-22T11:37:01.645Z,22.20
2023-03-22T11:39:30.948Z,22.30
2023-03-22T11:42:01.302Z,22.30
2023-03-22T11:44:35.403Z,22.40
2023-03-22T11:47:05.685Z,22.50
2023-03-22T11:49:41.552Z,22.40
2023-03-22T11:52:15.992Z,22.30
2023-03-22T11:54:45.672Z,22.40
2023-03-22T11:57:19.002Z,21.90
2023-03-22T11:59:53.783Z,22.10
2023-03-22T12:02:26.568Z,22.20
2023-03-22T12:05:01.736Z,22.30
2023-03-22T12:07:33.974Z,21.80
2023-03-22T12:10:07.948Z,21.80
2023-03-22T12:12:40.159Z,21.90
2023-03-22T12:15:16.925Z,22.10
2023-03-22T12:17:50.005Z,22.00
2023-03-22T12:20:32.552Z,22.00
2023-03-22T12:23:03.495Z,22.00
2023-03-22T12:25:36.185Z,21.90
2023-03-22T12:28:09.109Z,21.70
2023-03-22T12:30:43.259Z,21.60
2023-03-22T12:33:20.595Z,22.00
2023-03-22T12:35:51.684Z,21.60
2023-03-22T12:38:29.570Z,21.70
2023-03-22T12:41:02.019Z,22.10
2023-03-22T12:43:46.617Z,21.90
2023-03-22T12:46:21.615Z,21.60
2023-03-22T12:48:54.750Z,21.80
2023-03-22T12:51:22.939Z,21.30
2023-03-22T12:53:57.743Z,21.20
2023-03-22T12:56:31.702Z,20.80
2023-03-22T12:59:04.509Z,21.20
2023-03-22T13:01:38.298Z,21.40
2023-03-22T13:04:31.267Z,21.10
2023-03-22T13:07:12.355Z,21.50
2023-03-22T13:09:44.553Z,21.40
2023-03-22T13:12:34.826Z,21.20
2023-03-22T13:15:40.469Z,21.70
2023-03-22T13:18:33.568Z,21.70
2023-03-22T13:21:14.374Z,21.80
2023-03-22T13:23:57.939Z,21.60
2023-03-22T13:26:36.306Z,21.70
2023-03-22T13:29:17.169Z,21.80
2023-03-22T13:31:48.499Z,21.90
2023-03-22T13:34:20.487Z,21.50
2023-03-22T13:36:56.327Z,21.60
2023-03-22T13:39:27.368Z,21.60
2023-03-22T13:42:09.702Z,21.40
2023-03-22T13:44:42.771Z,21.60
2023-03-22T13:47:33.515Z,21.70
2023-03-22T13:50:08.311Z,21.60
2023-03-22T13:52:39.928Z,21.40
2023-03-22T13:55:37.182Z,21.70
2023-03-22T13:58:13.067Z,21.70
2023-03-22T14:00:49.397Z,21.60
2023-03-22T14:03:26.602Z,21.50
2023-03-22T14:06:15.685Z,21.60
2023-03-22T14:08:45.412Z,22.00
2023-03-22T14:11:24.161Z,21.70
2023-03-22T14:13:59.583Z,21.50
2023-03-22T14:16:40.352Z,21.80
2023-03-22T14:19:17.457Z,21.80
